Time;durP1;ratioP1;P1;durP2;ratioP2;P2;SDS_P1;SDS_P2;PMS_P1;PMS_P2;Temp;Humidity;BMP_temperature;BMP_pressure;BME280_temperature;BME280_humidity;BME280_pressure;Samples;Min_cycle;Max_cycle;Signal;HPM_P1;HPM_P2
2022/07/02 00:01:05;;;;;;;22.73;21.43;;;15.50;90.20;;;;;;4991608;28;20876;-69
2022/07/02 00:03:36;;;;;;;23.40;21.73;;;15.50;90.20;;;;;;5004028;28;21046;-69
2022/07/02 00:06:04;;;;;;;22.80;21.47;;;15.50;90.00;;;;;;5006245;28;20468;-69
2022/07/02 00:08:32;;;;;;;23.20;21.83;;;15.50;89.70;;;;;;4996952;28;20576;-70
2022/07/02 00:11:00;;;;;;;22.70;21.50;;;15.50;90.00;;;;;;5004386;28;20583;-69
2022/07/02 00:13:28;;;;;;;23.27;21.53;;;15.50;90.00;;;;;;5008501;28;20990;-69
2022/07/02 00:15:57;;;;;;;21.63;20.43;;;15.40;90.20;;;;;;5004773;28;21066;-69
2022/07/02 00:18:24;;;;;;;22.30;21.00;;;15.40;90.40;;;;;;5009893;28;20564;-69
2022/07/02 00:20:51;;;;;;;22.03;20.73;;;15.40;90.40;;;;;;5004358;28;20461;-69
2022/07/02 00:23:18;;;;;;;22.17;20.70;;;15.40;90.20;;;;;;5007077;28;21042;-69
2022/07/02 00:25:53;;;;;;;21.93;20.73;;;15.30;90.60;;;;;;5003509;28;20457;-69
2022/07/02 00:28:23;;;;;;;21.80;20.60;;;15.30;90.90;;;;;;5008401;28;20876;-69
2022/07/02 00:30:52;;;;;;;22.10;20.80;;;15.30;90.80;;;;;;5005159;28;20457;-69
2022/07/02 00:33:20;;;;;;;21.60;20.50;;;15.30;91.00;;;;;;5008379;28;20478;-69
2022/07/02 00:35:48;;;;;;;22.83;21.53;;;15.30;90.90;;;;;;5001243;28;20457;-69
2022/07/02 00:38:14;;;;;;;22.63;21.33;;;15.30;90.80;;;;;;5003109;28;20559;-70
2022/07/02 00:40:44;;;;;;;22.40;21.10;;;15.30;90.50;;;;;;5007670;28;20541;-69
2022/07/02 00:43:11;;;;;;;22.10;20.70;;;15.20;90.70;;;;;;5008534;28;20921;-69
2022/07/02 00:45:39;;;;;;;22.83;21.33;;;15.20;90.90;;;;;;5004325;28;20548;-70
2022/07/02 00:48:06;;;;;;;23.37;21.87;;;15.20;91.00;;;;;;5006986;28;20481;-68
2022/07/02 00:50:35;;;;;;;22.13;20.93;;;15.20;90.70;;;;;;5005064;28;20461;-67
2022/07/02 00:53:02;;;;;;;22.60;21.33;;;15.20;90.80;;;;;;5009030;28;21306;-67
2022/07/02 00:55:29;;;;;;;22.57;21.20;;;15.20;90.70;;;;;;5005677;28;20898;-69
2022/07/02 00:57:57;;;;;;;21.20;20.10;;;15.10;90.60;;;;;;5008073;28;20898;-69
2022/07/02 01:00:24;;;;;;;21.53;20.43;;;15.10;90.80;;;;;;5006117;28;20465;-71
2022/07/02 01:02:52;;;;;;;21.00;19.90;;;15.10;90.80;;;;;;5007487;28;20453;-70
2022/07/02 01:05:20;;;;;;;21.30;20.10;;;15.00;90.90;;;;;;5002688;28;20453;-70
2022/07/02 01:10:16;;;;;;;21.73;20.47;;;15.00;91.10;;;;;;5005707;28;20610;-69
2022/07/02 01:10:40;;;;;;;21.83;20.73;;;15.00;91.10;;;;;;5004878;28;20466;-69
2022/07/02 01:13:11;;;;;;;21.70;20.60;;;14.90;91.40;;;;;;5009295;28;20459;-67
2022/07/02 01:15:39;;;;;;;21.40;20.30;;;15.00;91.10;;;;;;5004615;28;20461;-68
2022/07/02 01:18:06;;;;;;;21.63;20.43;;;15.00;90.80;;;;;;5007195;28;20841;-67
2022/07/02 01:20:33;;;;;;;21.97;20.50;;;14.90;90.70;;;;;;5002341;28;21402;-67
2022/07/02 01:23:01;;;;;;;22.47;21.17;;;14.90;90.90;;;;;;5002469;28;20469;-67
2022/07/02 01:25:29;;;;;;;23.00;21.73;;;14.90;91.00;;;;;;5004335;28;20453;-67
2022/07/02 01:27:55;;;;;;;21.67;20.37;;;14.90;91.20;;;;;;5004816;28;22048;-67
2022/07/02 01:30:22;;;;;;;21.43;20.33;;;14.90;91.40;;;;;;5004173;28;20841;-68
2022/07/02 01:32:49;;;;;;;22.10;21.00;;;14.90;91.00;;;;;;5003027;28;20581;-67
2022/07/02 01:35:16;;;;;;;21.50;20.40;;;14.90;91.10;;;;;;5006426;28;21004;-68
2022/07/02 01:37:44;;;;;;;20.50;19.50;;;14.90;91.30;;;;;;5003541;28;20485;-67
2022/07/02 01:40:12;;;;;;;21.47;20.17;;;14.90;91.10;;;;;;5007127;28;20458;-68
2022/07/02 01:42:39;;;;;;;20.97;19.83;;;14.80;91.20;;;;;;5003196;28;20457;-68
2022/07/02 01:45:07;;;;;;;21.77;20.47;;;14.80;91.20;;;;;;5006708;28;20481;-68
2022/07/02 01:47:34;;;;;;;20.73;19.73;;;14.80;91.20;;;;;;5006054;28;20473;-67
2022/07/02 01:50:01;;;;;;;22.13;20.93;;;14.80;91.40;;;;;;5004389;28;20479;-68
2022/07/02 01:52:27;;;;;;;20.60;19.60;;;14.80;91.40;;;;;;5005868;28;20465;-67
2022/07/02 01:54:55;;;;;;;21.33;20.03;;;14.70;91.60;;;;;;5006257;28;20481;-68
2022/07/02 01:57:23;;;;;;;21.30;20.10;;;14.80;91.20;;;;;;5004687;28;20569;-68
2022/07/02 01:59:50;;;;;;;21.30;20.00;;;14.70;91.40;;;;;;4995365;28;20791;-68
2022/07/02 02:02:18;;;;;;;20.30;19.30;;;14.70;91.20;;;;;;5006169;28;20497;-68
2022/07/02 02:04:44;;;;;;;20.40;19.30;;;14.70;91.10;;;;;;5002078;28;20457;-69
2022/07/02 02:07:11;;;;;;;22.77;20.63;;;14.70;91.10;;;;;;5001943;28;20484;-69
2022/07/02 02:09:38;;;;;;;20.33;19.33;;;14.70;91.00;;;;;;5001761;28;20539;-69
2022/07/02 02:12:06;;;;;;;20.50;19.40;;;14.70;91.00;;;;;;5002134;28;20864;-69
2022/07/02 02:14:35;;;;;;;20.40;19.40;;;14.60;91.30;;;;;;5006181;28;20469;-71
2022/07/02 02:17:02;;;;;;;20.00;18.90;;;14.60;91.20;;;;;;4999609;28;20582;-70
2022/07/02 02:19:28;;;;;;;20.30;19.20;;;14.60;91.30;;;;;;5003797;28;20473;-69
2022/07/02 02:21:56;;;;;;;20.63;19.53;;;14.60;91.30;;;;;;5001597;28;20676;-68
2022/07/02 02:24:23;;;;;;;20.67;19.50;;;14.50;91.30;;;;;;5002127;28;20457;-67
2022/07/02 02:26:49;;;;;;;20.37;19.27;;;14.50;91.70;;;;;;5004665;28;20555;-67
2022/07/02 02:29:16;;;;;;;20.80;19.40;;;14.30;91.90;;;;;;5003499;28;20487;-67
2022/07/02 02:31:45;;;;;;;20.27;19.17;;;14.30;91.80;;;;;;5005766;28;20475;-68
2022/07/02 02:34:12;;;;;;;21.43;19.90;;;14.30;92.10;;;;;;5006648;28;20491;-68
2022/07/02 02:36:39;;;;;;;20.83;19.80;;;14.20;92.20;;;;;;5003318;28;20456;-67
2022/07/02 02:39:06;;;;;;;20.27;19.20;;;14.20;92.40;;;;;;5005922;28;20477;-67
2022/07/02 02:41:33;;;;;;;21.10;19.50;;;14.30;92.20;;;;;;5004447;28;20572;-67
2022/07/02 02:44:00;;;;;;;20.10;19.10;;;14.30;92.10;;;;;;5004547;28;20507;-67
2022/07/02 02:46:27;;;;;;;20.60;19.50;;;14.30;92.10;;;;;;5001887;28;20515;-67
2022/07/02 02:48:55;;;;;;;20.60;19.30;;;14.30;92.10;;;;;;5007359;28;20477;-69
2022/07/02 02:51:22;;;;;;;19.40;18.40;;;14.30;92.10;;;;;;5003956;28;20535;-68
2022/07/02 02:53:49;;;;;;;20.10;19.00;;;14.30;92.00;;;;;;5003709;28;21031;-67
2022/07/02 02:56:16;;;;;;;20.10;19.00;;;14.30;92.20;;;;;;4998668;28;20484;-67
2022/07/02 02:58:43;;;;;;;20.07;18.80;;;14.30;92.30;;;;;;5001946;28;21093;-67
2022/07/02 03:01:10;;;;;;;19.60;18.60;;;14.30;92.60;;;;;;4998861;28;20543;-67
2022/07/02 03:03:37;;;;;;;20.27;19.20;;;14.30;92.60;;;;;;5005548;28;20464;-68
2022/07/02 03:06:05;;;;;;;19.63;18.63;;;14.30;92.70;;;;;;5004723;28;21064;-67
2022/07/02 03:08:32;;;;;;;20.53;19.43;;;14.30;92.70;;;;;;5006539;28;21054;-67
2022/07/02 03:10:59;;;;;;;20.77;19.47;;;14.30;92.70;;;;;;5003065;28;20552;-67
2022/07/02 03:13:26;;;;;;;20.90;19.60;;;14.30;92.70;;;;;;5005312;28;20556;-67
2022/07/02 03:15:53;;;;;;;19.83;18.83;;;14.40;92.50;;;;;;5003474;28;20477;-67
2022/07/02 03:18:20;;;;;;;20.60;19.50;;;14.40;92.10;;;;;;5006923;28;20495;-67
2022/07/02 03:20:47;;;;;;;20.33;19.13;;;14.40;92.00;;;;;;5001547;28;20459;-67
2022/07/02 03:23:16;;;;;;;20.30;19.30;;;14.40;91.70;;;;;;5003221;28;20469;-67
2022/07/02 03:25:42;;;;;;;20.93;19.83;;;14.30;91.90;;;;;;5004490;28;20476;-67
2022/07/02 03:28:09;;;;;;;20.93;19.70;;;14.30;92.10;;;;;;5005761;28;20473;-67
2022/07/02 03:30:36;;;;;;;20.40;19.30;;;14.30;92.10;;;;;;5004273;28;20453;-67
2022/07/02 03:33:03;;;;;;;20.27;19.27;;;14.30;92.00;;;;;;5003660;28;20457;-67
2022/07/02 03:35:30;;;;;;;21.40;20.20;;;14.30;92.10;;;;;;5004648;28;20491;-67
2022/07/02 03:37:57;;;;;;;20.70;19.60;;;14.30;92.10;;;;;;5004558;28;20568;-68
2022/07/02 03:40:27;;;;;;;21.13;20.03;;;14.30;92.30;;;;;;5006139;28;20884;-67
2022/07/02 03:42:54;;;;;;;20.87;19.80;;;14.40;92.10;;;;;;5007948;28;20556;-67
2022/07/02 03:45:21;;;;;;;21.20;20.10;;;14.50;92.10;;;;;;5006189;28;20453;-67
2022/07/02 03:47:48;;;;;;;21.03;19.97;;;14.60;92.10;;;;;;5009546;28;20477;-67
2022/07/02 03:50:15;;;;;;;20.83;19.67;;;14.70;92.40;;;;;;5001888;28;20462;-67
2022/07/02 03:52:42;;;;;;;20.37;19.37;;;14.90;92.10;;;;;;5003564;28;20520;-67
2022/07/02 03:55:09;;;;;;;21.47;20.33;;;15.10;91.20;;;;;;5006112;28;20468;-67
2022/07/02 03:57:38;;;;;;;21.27;20.17;;;15.50;89.30;;;;;;5007447;28;20573;-67
2022/07/02 04:00:06;;;;;;;20.60;19.60;;;15.90;86.70;;;;;;5005676;28;20461;-67
2022/07/02 04:02:33;;;;;;;21.63;20.53;;;16.40;85.10;;;;;;5007514;28;20453;-67
2022/07/02 04:05:00;;;;;;;23.97;22.67;;;16.90;82.50;;;;;;5008730;28;20459;-67
2022/07/02 04:07:27;;;;;;;22.83;21.40;;;17.00;81.10;;;;;;5009079;28;20967;-68
2022/07/02 04:09:54;;;;;;;22.90;21.60;;;16.90;81.10;;;;;;5007328;28;21009;-67
2022/07/02 04:12:21;;;;;;;23.47;22.27;;;16.50;82.20;;;;;;5003874;28;20449;-68
2022/07/02 04:14:49;;;;;;;23.30;22.10;;;16.30;83.10;;;;;;5008889;28;20560;-67
2022/07/02 04:17:16;;;;;;;24.03;22.63;;;16.10;83.80;;;;;;5003423;28;20488;-67
2022/07/02 04:19:43;;;;;;;23.00;21.90;;;15.90;84.70;;;;;;5008378;28;20467;-67
2022/07/02 04:22:10;;;;;;;23.43;22.23;;;16.00;84.80;;;;;;5005150;28;20466;-67
2022/07/02 04:24:37;;;;;;;22.60;21.40;;;16.00;85.10;;;;;;5006336;28;20816;-73
2022/07/02 04:27:04;;;;;;;22.00;20.90;;;16.00;85.10;;;;;;5004852;28;20481;-67
2022/07/02 04:29:31;;;;;;;22.37;21.17;;;16.00;85.10;;;;;;5003169;28;20899;-67
2022/07/02 04:32:00;;;;;;;22.77;21.57;;;16.10;85.30;;;;;;5006919;28;20485;-67
2022/07/02 04:34:27;;;;;;;23.17;21.90;;;16.10;85.40;;;;;;5005028;28;20959;-67
2022/07/02 04:36:54;;;;;;;24.87;23.37;;;16.10;85.10;;;;;;5005744;28;20457;-67
2022/07/02 04:39:21;;;;;;;23.00;21.90;;;16.10;85.30;;;;;;5000649;28;20572;-67
2022/07/02 04:41:48;;;;;;;22.40;21.30;;;16.10;85.40;;;;;;5004621;28;20570;-67
2022/07/02 04:44:15;;;;;;;24.30;22.80;;;16.20;85.40;;;;;;4999588;28;20564;-67
2022/07/02 04:46:42;;;;;;;23.00;21.70;;;16.30;85.20;;;;;;5004960;28;20985;-69
2022/07/02 04:49:10;;;;;;;23.73;22.20;;;16.30;85.40;;;;;;5005242;28;20901;-71
2022/07/02 04:51:37;;;;;;;23.60;22.30;;;16.30;85.50;;;;;;4998852;28;20453;-69
2022/07/02 04:54:04;;;;;;;23.93;22.43;;;16.30;85.50;;;;;;5007048;28;20532;-69
2022/07/02 04:56:31;;;;;;;24.10;22.70;;;16.30;85.70;;;;;;5004915;28;21105;-69
2022/07/02 04:58:58;;;;;;;23.50;22.30;;;16.50;85.60;;;;;;5005583;28;20485;-69
2022/07/02 05:01:25;;;;;;;22.60;21.50;;;16.60;85.30;;;;;;5002097;28;20471;-70
2022/07/02 05:03:52;;;;;;;24.00;22.50;;;16.60;85.20;;;;;;5008487;28;20457;-69
2022/07/02 05:06:21;;;;;;;23.97;22.73;;;16.60;85.30;;;;;;5003980;28;20470;-69
2022/07/02 05:08:48;;;;;;;23.60;22.30;;;16.60;85.30;;;;;;5006104;28;20481;-68
2022/07/02 05:11:16;;;;;;;23.20;21.90;;;16.50;85.80;;;;;;5003972;28;20465;-69
2022/07/02 05:13:43;;;;;;;23.97;22.57;;;16.60;85.80;;;;;;5008384;28;21142;-69
2022/07/02 05:16:10;;;;;;;23.10;21.90;;;16.80;85.50;;;;;;5003273;28;20481;-70
2022/07/02 05:18:37;;;;;;;23.73;21.93;;;16.70;85.20;;;;;;5006342;28;20473;-68
2022/07/02 05:21:04;;;;;;;23.37;21.87;;;16.60;85.80;;;;;;5005785;28;20465;-69
2022/07/02 05:23:33;;;;;;;23.43;21.90;;;16.70;85.80;;;;;;5007662;28;20461;-69
2022/07/02 05:26:00;;;;;;;23.23;21.80;;;16.80;85.60;;;;;;5005685;28;20454;-69
2022/07/02 05:28:27;;;;;;;24.27;22.70;;;16.90;85.10;;;;;;5006810;28;20568;-69
2022/07/02 05:30:54;;;;;;;23.97;22.57;;;16.90;85.20;;;;;;5005268;28;20572;-69
2022/07/02 05:33:21;;;;;;;23.97;22.67;;;17.00;85.10;;;;;;5006296;28;20545;-69
2022/07/02 05:35:48;;;;;;;22.50;21.30;;;17.10;84.80;;;;;;5004578;28;21010;-69
2022/07/02 05:38:15;;;;;;;22.60;21.30;;;17.20;84.50;;;;;;5006680;28;20488;-69
2022/07/02 05:40:44;;;;;;;23.20;21.87;;;17.30;84.70;;;;;;5002290;28;20553;-68
2022/07/02 05:43:10;;;;;;;23.13;21.83;;;17.30;84.50;;;;;;5003438;28;20540;-68
2022/07/02 05:45:37;;;;;;;25.17;23.87;;;17.50;84.40;;;;;;5005536;28;20464;-68
2022/07/02 05:48:05;;;;;;;25.13;23.70;;;17.50;83.60;;;;;;5005086;28;20481;-68
2022/07/02 05:50:32;;;;;;;24.20;22.97;;;17.50;83.40;;;;;;5006031;28;20448;-69
2022/07/02 05:52:59;;;;;;;23.00;21.70;;;17.60;83.20;;;;;;5000393;28;20574;-68
2022/07/02 05:55:26;;;;;;;24.30;23.00;;;17.80;83.10;;;;;;5008633;28;20520;-68
2022/07/02 05:57:54;;;;;;;23.47;22.07;;;17.80;82.40;;;;;;5006422;28;20481;-69
2022/07/02 06:00:21;;;;;;;24.63;23.13;;;18.00;82.30;;;;;;5003599;28;21007;-69
2022/07/02 06:02:48;;;;;;;23.33;22.00;;;18.00;82.40;;;;;;4999934;28;20896;-70
2022/07/02 06:07:59;;;;;;;25.50;24.00;;;18.30;81.70;;;;;;5002351;28;20492;-70
2022/07/02 06:10:27;;;;;;;24.30;23.00;;;18.30;81.50;;;;;;5005158;28;20556;-69
2022/07/02 06:12:55;;;;;;;24.27;23.07;;;18.50;80.90;;;;;;5000138;28;20465;-68
2022/07/02 06:15:22;;;;;;;26.80;25.40;;;18.60;80.70;;;;;;5003195;28;20574;-70
2022/07/02 06:17:50;;;;;;;24.60;23.30;;;18.70;80.40;;;;;;5005637;28;20481;-69
2022/07/02 06:20:17;;;;;;;25.40;23.97;;;18.80;80.10;;;;;;5003079;28;20467;-69
2022/07/02 06:22:44;;;;;;;24.60;23.20;;;18.90;79.70;;;;;;5006127;28;20492;-70
2022/07/02 06:25:11;;;;;;;25.80;24.50;;;18.90;78.40;;;;;;5004411;28;20863;-70
2022/07/02 06:27:38;;;;;;;24.07;22.77;;;18.80;78.80;;;;;;5007296;28;20568;-70
2022/07/02 06:30:08;;;;;;;26.90;25.30;;;18.80;78.80;;;;;;5004306;28;20500;-70
2022/07/02 06:32:36;;;;;;;25.73;24.40;;;19.00;78.70;;;;;;5007209;28;20488;-71
2022/07/02 06:35:04;;;;;;;25.80;24.40;;;19.00;78.00;;;;;;5004866;28;20981;-71
2022/07/02 06:37:31;;;;;;;27.23;25.73;;;19.00;77.50;;;;;;5001954;28;21029;-69
2022/07/02 06:39:58;;;;;;;25.87;24.40;;;19.10;77.20;;;;;;5005620;28;20941;-70
2022/07/02 06:42:26;;;;;;;25.20;23.90;;;19.10;77.00;;;;;;5001465;28;20459;-71
2022/07/02 06:44:55;;;;;;;26.50;25.10;;;19.20;76.50;;;;;;5003212;28;20469;-71
2022/07/02 06:47:23;;;;;;;26.00;24.60;;;19.30;76.70;;;;;;5004020;28;20561;-70
2022/07/02 06:49:51;;;;;;;25.30;23.80;;;19.40;76.20;;;;;;5002813;28;20529;-70
2022/07/02 06:52:19;;;;;;;23.60;22.40;;;19.50;74.90;;;;;;4998060;28;20584;-74
2022/07/02 06:54:46;;;;;;;25.67;23.97;;;19.70;74.40;;;;;;5000036;28;20568;-73
2022/07/02 06:57:13;;;;;;;25.87;24.57;;;19.80;74.20;;;;;;5002743;28;20503;-72
2022/07/02 06:59:40;;;;;;;25.63;24.33;;;19.90;73.60;;;;;;5006758;28;20549;-72
2022/07/02 07:02:07;;;;;;;26.30;24.90;;;20.00;73.40;;;;;;5003795;28;20523;-72
2022/07/02 07:04:37;;;;;;;25.33;23.87;;;20.10;72.90;;;;;;5007345;28;20465;-72
2022/07/02 07:07:05;;;;;;;26.57;25.17;;;20.20;72.00;;;;;;5000457;28;20485;-71
2022/07/02 07:09:34;;;;;;;24.90;23.60;;;20.30;71.70;;;;;;5005769;28;20474;-71
2022/07/02 07:12:04;;;;;;;26.53;25.00;;;20.50;71.30;;;;;;5000911;28;20558;-71
2022/07/02 07:14:31;;;;;;;23.77;22.57;;;20.60;70.70;;;;;;5008020;28;20470;-70
2022/07/02 07:16:58;;;;;;;24.80;23.50;;;20.70;70.50;;;;;;5008357;28;20598;-73
2022/07/02 07:19:25;;;;;;;26.43;24.93;;;20.80;69.80;;;;;;5008045;28;20468;-72
2022/07/02 07:21:54;;;;;;;26.00;24.60;;;20.80;70.00;;;;;;5008281;28;20458;-71
2022/07/02 07:24:22;;;;;;;25.13;23.83;;;20.90;69.90;;;;;;5006165;28;20673;-71
2022/07/02 07:26:48;;;;;;;25.07;23.67;;;20.90;69.70;;;;;;5009579;28;20486;-72
2022/07/02 07:29:15;;;;;;;25.17;23.57;;;21.10;69.60;;;;;;5009543;28;20895;-70
2022/07/02 07:31:42;;;;;;;25.43;24.13;;;21.10;69.30;;;;;;4998884;28;20495;-73
2022/07/02 07:34:10;;;;;;;24.23;22.80;;;21.20;68.70;;;;;;5004881;28;20591;-69
2022/07/02 07:36:37;;;;;;;25.33;23.93;;;21.30;67.40;;;;;;5003341;28;20490;-69
2022/07/02 07:39:05;;;;;;;25.23;23.47;;;21.30;67.20;;;;;;5006180;28;20523;-69
2022/07/02 07:41:32;;;;;;;24.57;23.20;;;21.40;67.30;;;;;;4999175;28;20461;-71
2022/07/02 07:44:00;;;;;;;24.73;23.43;;;21.40;67.60;;;;;;5005428;28;20591;-72
2022/07/02 07:46:27;;;;;;;24.80;23.50;;;21.40;67.50;;;;;;5005440;28;20568;-71
2022/07/02 07:48:54;;;;;;;26.43;24.80;;;21.60;67.00;;;;;;5009462;28;21057;-72
2022/07/02 07:51:21;;;;;;;25.37;23.80;;;21.70;66.30;;;;;;5003153;28;20490;-71
2022/07/02 07:53:48;;;;;;;24.83;23.40;;;21.60;66.50;;;;;;4997652;28;20466;-72
2022/07/02 07:56:17;;;;;;;25.40;24.10;;;21.70;66.30;;;;;;5004216;28;21017;-74
2022/07/02 07:58:45;;;;;;;28.10;26.63;;;21.60;66.70;;;;;;5006533;28;20481;-74
2022/07/02 08:01:12;;;;;;;27.40;25.90;;;21.70;66.50;;;;;;5002503;28;20884;-73
2022/07/02 08:03:40;;;;;;;28.47;26.97;;;21.80;66.00;;;;;;5006762;28;20497;-74
2022/07/02 08:06:07;;;;;;;25.30;23.90;;;21.70;65.40;;;;;;5007343;28;21101;-73
2022/07/02 08:08:34;;;;;;;27.63;26.13;;;21.70;65.10;;;;;;5008294;28;20482;-74
2022/07/02 08:11:01;;;;;;;25.50;24.10;;;21.70;64.80;;;;;;5003252;28;20552;-73
2022/07/02 08:13:30;;;;;;;25.30;24.00;;;21.80;64.60;;;;;;5003308;28;20467;-73
2022/07/02 08:15:57;;;;;;;25.67;24.27;;;21.80;63.00;;;;;;5005226;28;20479;-73
2022/07/02 08:18:24;;;;;;;25.37;23.97;;;21.70;62.90;;;;;;5006326;28;20521;-72
2022/07/02 08:20:51;;;;;;;25.97;24.47;;;21.70;62.80;;;;;;5005249;28;20454;-73
2022/07/02 08:23:18;;;;;;;25.63;24.33;;;21.80;62.80;;;;;;5007113;28;20456;-73
2022/07/02 08:25:45;;;;;;;27.37;25.87;;;21.60;62.10;;;;;;5005541;28;20464;-73
2022/07/02 08:28:12;;;;;;;27.40;26.00;;;21.60;62.70;;;;;;5004349;28;20483;-73
2022/07/02 08:30:40;;;;;;;26.30;25.00;;;21.70;62.80;;;;;;5002050;28;20662;-73
2022/07/02 08:33:12;;;;;;;26.37;25.00;;;21.80;61.80;;;;;;5007963;28;20540;-74
2022/07/02 08:35:39;;;;;;;25.97;24.57;;;21.90;61.90;;;;;;5003007;28;20469;-74
2022/07/02 08:38:06;;;;;;;24.77;23.40;;;22.00;61.00;;;;;;5010144;28;20999;-73
2022/07/02 08:40:33;;;;;;;24.90;23.60;;;22.10;61.10;;;;;;5006056;28;20999;-75
2022/07/02 08:43:01;;;;;;;25.03;23.73;;;22.10;59.90;;;;;;5006446;28;20497;-73
2022/07/02 08:45:32;;;;;;;26.97;25.57;;;22.10;60.70;;;;;;5004157;28;20506;-73
2022/07/02 08:48:02;;;;;;;24.73;23.43;;;22.20;60.80;;;;;;5003808;28;20495;-73
2022/07/02 08:50:30;;;;;;;27.73;25.93;;;22.40;60.30;;;;;;5002690;28;20483;-73
2022/07/02 08:52:57;;;;;;;26.87;25.47;;;22.30;60.60;;;;;;5004537;28;20885;-73
2022/07/02 08:55:24;;;;;;;26.00;24.60;;;22.40;59.90;;;;;;5005200;28;20531;-73
2022/07/02 08:57:52;;;;;;;26.20;24.80;;;22.40;59.80;;;;;;5004323;28;20573;-73
2022/07/02 09:00:22;;;;;;;26.20;24.60;;;22.50;59.80;;;;;;5005379;28;20470;-74
2022/07/02 09:02:53;;;;;;;27.33;25.83;;;22.40;57.90;;;;;;5006193;28;20458;-73
2022/07/02 09:05:22;;;;;;;26.37;24.87;;;22.40;58.10;;;;;;5006950;28;20474;-78
2022/07/02 09:07:49;;;;;;;26.43;25.03;;;22.50;58.00;;;;;;5006324;28;20478;-72
2022/07/02 09:10:17;;;;;;;27.07;25.57;;;22.60;57.90;;;;;;5005847;28;20688;-73
2022/07/02 09:12:47;;;;;;;26.07;24.67;;;22.60;58.60;;;;;;5003814;28;20877;-73
2022/07/02 09:15:15;;;;;;;26.70;25.30;;;22.70;58.50;;;;;;5002508;28;20463;-73
2022/07/02 09:17:43;;;;;;;25.27;23.97;;;22.70;56.70;;;;;;5005693;28;20497;-71
2022/07/02 09:20:10;;;;;;;24.77;23.40;;;22.60;54.00;;;;;;5005331;28;20460;-71
2022/07/02 09:22:42;;;;;;;26.33;24.70;;;22.60;54.50;;;;;;5005137;28;21347;-70
2022/07/02 09:25:12;;;;;;;27.87;26.37;;;22.70;55.30;;;;;;5006299;28;20784;-71
2022/07/02 09:27:39;;;;;;;26.57;25.17;;;22.80;55.20;;;;;;5005873;28;20480;-71
2022/07/02 09:30:08;;;;;;;27.10;25.70;;;22.80;55.40;;;;;;5005745;28;21033;-71
2022/07/02 09:32:41;;;;;;;26.87;25.43;;;23.00;55.80;;;;;;5003368;28;20830;-71
2022/07/02 09:35:17;;;;;;;25.93;24.53;;;23.00;53.60;;;;;;4992846;28;20571;-71
2022/07/02 09:37:45;;;;;;;25.57;24.23;;;22.90;54.80;;;;;;5006079;28;20487;-71
2022/07/02 09:40:14;;;;;;;26.20;24.80;;;22.90;54.40;;;;;;5001800;28;21088;-72
2022/07/02 09:42:47;;;;;;;25.87;24.47;;;23.10;54.80;;;;;;5003875;28;20550;-72
2022/07/02 09:45:15;;;;;;;26.10;24.70;;;23.10;55.40;;;;;;5003505;28;20558;-72
2022/07/02 09:47:48;;;;;;;26.43;24.93;;;23.30;53.20;;;;;;5001734;28;20481;-72
2022/07/02 09:50:16;;;;;;;25.70;24.30;;;23.30;54.70;;;;;;5004848;28;20600;-71
2022/07/02 09:52:53;;;;;;;25.80;24.30;;;23.40;54.20;;;;;;5003466;28;20455;-71
2022/07/02 09:55:22;;;;;;;25.07;23.77;;;23.60;54.00;;;;;;4999023;28;20456;-71
2022/07/02 09:57:51;;;;;;;25.30;23.90;;;23.60;54.00;;;;;;5001884;28;21016;-72
2022/07/02 10:00:18;;;;;;;26.23;24.73;;;23.80;53.00;;;;;;4997771;28;20469;-71
2022/07/02 10:02:45;;;;;;;27.17;25.67;;;23.80;52.80;;;;;;5001780;28;20552;-71
2022/07/02 10:05:12;;;;;;;25.03;23.63;;;23.90;53.00;;;;;;5005359;28;20900;-72
2022/07/02 10:07:40;;;;;;;24.93;23.53;;;23.90;52.40;;;;;;5001322;28;20496;-71
2022/07/02 10:10:10;;;;;;;24.40;23.10;;;24.00;51.50;;;;;;4997746;28;20979;-71
2022/07/02 10:12:37;;;;;;;26.23;24.73;;;24.00;51.40;;;;;;5003506;28;20879;-71
2022/07/02 10:15:06;;;;;;;26.10;24.70;;;24.10;51.70;;;;;;4989851;28;23092;-71
2022/07/02 10:17:35;;;;;;;26.23;24.83;;;24.20;51.70;;;;;;5000019;28;21018;-71
2022/07/02 10:20:04;;;;;;;28.00;26.40;;;24.20;52.00;;;;;;5003905;28;21005;-71
2022/07/02 10:22:32;;;;;;;26.57;25.07;;;24.20;51.70;;;;;;5002609;28;20465;-70
2022/07/02 10:25:00;;;;;;;25.30;23.90;;;24.30;51.30;;;;;;5003311;28;20565;-70
2022/07/02 10:27:30;;;;;;;26.10;24.70;;;24.30;51.30;;;;;;5000789;28;20505;-71
2022/07/02 10:29:58;;;;;;;25.90;24.50;;;24.40;50.90;;;;;;5004732;28;20540;-70
2022/07/02 10:32:33;;;;;;;27.27;25.77;;;24.40;51.00;;;;;;4995540;28;20461;-70
2022/07/02 10:35:09;;;;;;;26.13;24.73;;;24.40;51.00;;;;;;5006721;28;20904;-70
2022/07/02 10:37:38;;;;;;;27.10;25.60;;;24.30;51.80;;;;;;5005567;28;20490;-70
2022/07/02 10:40:06;;;;;;;26.30;24.77;;;24.40;51.10;;;;;;5006688;28;20464;-70
2022/07/02 10:42:40;;;;;;;25.73;24.33;;;24.50;51.50;;;;;;5003699;28;20555;-70
2022/07/02 10:45:15;;;;;;;27.23;25.53;;;24.50;51.40;;;;;;5006409;28;20488;-70
2022/07/02 10:47:58;;;;;;;27.03;25.43;;;24.50;51.30;;;;;;5008016;28;21057;-68
2022/07/02 10:50:48;;;;;;;27.63;26.03;;;24.50;50.90;;;;;;5008844;28;21019;-69
2022/07/02 10:53:17;;;;;;;27.70;26.30;;;24.40;51.00;;;;;;5009146;28;20548;-69
2022/07/02 10:55:45;;;;;;;24.90;23.50;;;24.40;51.20;;;;;;5009401;28;20836;-70
2022/07/02 10:58:21;;;;;;;26.37;24.87;;;24.30;50.80;;;;;;5009966;28;20488;-70
2022/07/02 11:00:49;;;;;;;25.80;24.40;;;24.50;51.30;;;;;;5010539;28;20460;-70
2022/07/02 11:03:18;;;;;;;25.80;24.40;;;24.60;51.50;;;;;;5010320;28;20467;-70
2022/07/02 11:05:56;;;;;;;25.17;23.77;;;24.90;51.40;;;;;;5015322;28;20556;-69
2022/07/02 11:08:49;;;;;;;25.50;24.10;;;24.70;50.90;;;;;;5010832;28;20477;-69
2022/07/02 11:11:19;;;;;;;26.50;25.10;;;24.70;50.70;;;;;;5008459;28;20548;-69
2022/07/02 11:13:50;;;;;;;26.60;25.10;;;24.80;50.40;;;;;;5012177;28;20517;-69
2022/07/02 11:16:25;;;;;;;26.00;24.53;;;25.00;50.40;;;;;;5009590;28;20479;-71
2022/07/02 11:18:55;;;;;;;25.77;24.37;;;24.90;49.90;;;;;;5009685;28;20559;-71
2022/07/02 11:21:23;;;;;;;28.20;26.63;;;24.80;50.10;;;;;;5008730;28;20465;-71
2022/07/02 11:23:50;;;;;;;26.57;25.10;;;24.90;50.30;;;;;;5009825;28;20549;-71
2022/07/02 11:26:19;;;;;;;29.10;27.50;;;25.00;49.90;;;;;;5009057;28;20453;-71
2022/07/02 11:28:49;;;;;;;27.70;26.20;;;25.10;50.30;;;;;;5009673;28;20474;-71
2022/07/02 11:31:17;;;;;;;28.00;26.50;;;25.10;49.10;;;;;;5011812;28;20533;-70
2022/07/02 11:33:49;;;;;;;27.30;25.90;;;25.30;49.30;;;;;;5009392;28;20493;-71
2022/07/02 11:36:16;;;;;;;26.60;25.10;;;25.30;48.90;;;;;;5009688;28;21030;-69
2022/07/02 11:38:45;;;;;;;25.87;24.43;;;25.40;48.10;;;;;;5009020;28;20954;-69
2022/07/02 11:41:23;;;;;;;27.97;26.47;;;25.40;47.70;;;;;;5007677;28;20560;-70
2022/07/02 11:43:53;;;;;;;27.67;26.17;;;25.60;48.10;;;;;;5009530;28;20535;-70
2022/07/02 11:46:22;;;;;;;27.93;26.40;;;25.50;47.50;;;;;;5007837;28;20497;-70
2022/07/02 11:48:49;;;;;;;26.53;25.03;;;25.50;46.70;;;;;;5000359;28;21075;-70
2022/07/02 11:51:16;;;;;;;27.10;25.60;;;25.40;47.00;;;;;;5002168;28;20483;-70
2022/07/02 11:53:43;;;;;;;26.90;25.40;;;25.50;47.20;;;;;;5008233;28;20468;-69
2022/07/02 11:56:13;;;;;;;26.40;24.90;;;25.40;48.20;;;;;;5000499;28;20461;-69
2022/07/02 11:58:44;;;;;;;26.50;24.83;;;25.60;48.10;;;;;;4998617;28;20563;-68
2022/07/02 12:01:23;;;;;;;25.00;23.60;;;25.70;48.70;;;;;;5007328;28;20561;-71
2022/07/02 12:03:52;;;;;;;25.57;24.17;;;25.70;48.30;;;;;;5005662;28;20576;-70
2022/07/02 12:06:19;;;;;;;26.53;25.03;;;25.70;46.70;;;;;;5007643;28;20472;-70
2022/07/02 12:08:47;;;;;;;26.20;24.80;;;25.60;46.30;;;;;;5004468;28;20513;-70
2022/07/02 12:11:16;;;;;;;26.83;25.33;;;25.50;45.70;;;;;;5006673;28;20991;-71
2022/07/02 12:13:44;;;;;;;25.70;24.30;;;25.30;45.60;;;;;;5005190;28;20473;-70
2022/07/02 12:16:13;;;;;;;25.90;24.50;;;25.00;46.30;;;;;;5001817;28;20463;-71
2022/07/02 12:18:42;;;;;;;26.23;24.53;;;25.10;47.30;;;;;;5005317;28;20481;-71
2022/07/02 12:21:11;;;;;;;27.93;26.27;;;25.20;47.30;;;;;;5004253;28;20480;-71
2022/07/02 12:23:48;;;;;;;28.10;26.60;;;25.20;47.50;;;;;;5004394;28;20461;-71
2022/07/02 12:26:23;;;;;;;26.37;24.87;;;25.40;47.50;;;;;;5004153;28;20461;-71
2022/07/02 12:31:52;;;;;;;27.77;26.07;;;25.60;45.90;;;;;;5007873;28;20449;-70
2022/07/02 12:34:22;;;;;;;27.67;25.97;;;25.70;46.60;;;;;;5006679;28;20528;-69
2022/07/02 12:36:59;;;;;;;28.07;26.47;;;25.90;47.00;;;;;;5006395;28;20466;-70
2022/07/02 12:39:39;;;;;;;30.20;28.20;;;26.10;47.00;;;;;;5006426;28;21194;-69